Terminal Aerodrome Forecast
Issued by NWS Jackson, MS

Home | Current Version | Previous Version | Text Only | Print | Product List | Glossary On
Versions: 1 2 3 4 5 6 7 8 9 10 11 12 13 14 15 16 17 18 19 20 21
000
FTUS44 KJAN 282300
TAFGLH
TAF
KGLH 282322Z 0100/0124 04006KT P6SM OVC100
     FM010100 05004KT P6SM OVC050
     FM010800 04005KT P6SM OVC025
     FM010900 04004KT 4SM BR OVC015
     FM011400 05005KT 4SM BR OVC007
     FM011700 05005KT 2SM -RA BR OVC007
     FM012100 03005KT 4SM BR OVC007
     FM012200 03005KT 4SM BR OVC003=

USA.gov is the U.S. government's official web portal to all federal, state and local government web resources and services.